sensor_id;sensor_type;location;lat;lon;timestamp;temperature;humidity
16287;DHT22;8251;53.568;10.018;2023-07-20T00:01:37;19.40;84.50
16287;DHT22;8251;53.568;10.018;2023-07-20T00:04:04;19.40;84.40
16287;DHT22;8251;53.568;10.018;2023-07-20T00:06:31;19.40;84.50
16287;DHT22;8251;53.568;10.018;2023-07-20T00:08:57;19.40;85.30
16287;DHT22;8251;53.568;10.018;2023-07-20T00:11:27;19.40;84.60
16287;DHT22;8251;53.568;10.018;2023-07-20T00:13:54;19.40;84.60
16287;DHT22;8251;53.568;10.018;2023-07-20T00:16:21;19.40;84.60
16287;DHT22;8251;53.568;10.018;2023-07-20T00:18:48;19.40;84.30
16287;DHT22;8251;53.568;10.018;2023-07-20T00:21:15;19.40;84.40
16287;DHT22;8251;53.568;10.018;2023-07-20T00:23:42;19.40;84.40
16287;DHT22;8251;53.568;10.018;2023-07-20T00:26:28;19.50;84.40
16287;DHT22;8251;53.568;10.018;2023-07-20T00:28:55;19.50;84.40
16287;DHT22;8251;53.568;10.018;2023-07-20T00:31:22;19.50;84.50
16287;DHT22;8251;53.568;10.018;2023-07-20T00:33:49;19.50;85.40
16287;DHT22;8251;53.568;10.018;2023-07-20T00:36:16;19.50;84.20
16287;DHT22;8251;53.568;10.018;2023-07-20T00:38:43;19.50;83.90
16287;DHT22;8251;53.568;10.018;2023-07-20T00:41:09;19.50;83.80
16287;DHT22;8251;53.568;10.018;2023-07-20T00:43:37;19.50;83.70
16287;DHT22;8251;53.568;10.018;2023-07-20T00:46:04;19.40;83.70
16287;DHT22;8251;53.568;10.018;2023-07-20T00:48:32;19.50;83.90
16287;DHT22;8251;53.568;10.018;2023-07-20T00:51:00;19.40;83.70
16287;DHT22;8251;53.568;10.018;2023-07-20T00:53:27;19.50;83.50
16287;DHT22;8251;53.568;10.018;2023-07-20T00:55:55;19.50;83.70
16287;DHT22;8251;53.568;10.018;2023-07-20T00:58:23;19.50;84.00
16287;DHT22;8251;53.568;10.018;2023-07-20T01:00:51;19.40;85.10
16287;DHT22;8251;53.568;10.018;2023-07-20T01:03:18;19.40;84.70
16287;DHT22;8251;53.568;10.018;2023-07-20T01:05:50;19.40;84.90
16287;DHT22;8251;53.568;10.018;2023-07-20T01:08:26;19.40;85.10
16287;DHT22;8251;53.568;10.018;2023-07-20T01:10:59;19.40;85.50
16287;DHT22;8251;53.568;10.018;2023-07-20T01:13:28;19.40;85.90
16287;DHT22;8251;53.568;10.018;2023-07-20T01:16:00;19.40;86.30
16287;DHT22;8251;53.568;10.018;2023-07-20T01:18:27;19.40;86.60
16287;DHT22;8251;53.568;10.018;2023-07-20T01:20:59;19.40;87.00
16287;DHT22;8251;53.568;10.018;2023-07-20T01:23:47;19.40;87.40
16287;DHT22;8251;53.568;10.018;2023-07-20T01:26:35;19.30;87.50
16287;DHT22;8251;53.568;10.018;2023-07-20T01:29:17;19.30;87.80
16287;DHT22;8251;53.568;10.018;2023-07-20T01:31:51;19.30;88.00
16287;DHT22;8251;53.568;10.018;2023-07-20T01:34:20;19.30;88.20
16287;DHT22;8251;53.568;10.018;2023-07-20T01:36:50;19.20;88.50
16287;DHT22;8251;53.568;10.018;2023-07-20T01:39:19;19.30;88.70
16287;DHT22;8251;53.568;10.018;2023-07-20T01:41:47;19.20;89.00
16287;DHT22;8251;53.568;10.018;2023-07-20T01:44:14;19.20;89.10
16287;DHT22;8251;53.568;10.018;2023-07-20T01:46:41;19.20;89.30
16287;DHT22;8251;53.568;10.018;2023-07-20T01:49:09;19.20;89.60
16287;DHT22;8251;53.568;10.018;2023-07-20T01:51:36;19.20;89.60
16287;DHT22;8251;53.568;10.018;2023-07-20T01:54:02;19.20;89.90
16287;DHT22;8251;53.568;10.018;2023-07-20T01:56:29;19.20;90.00
16287;DHT22;8251;53.568;10.018;2023-07-20T01:58:56;19.20;90.10
16287;DHT22;8251;53.568;10.018;2023-07-20T02:01:23;19.20;90.10
16287;DHT22;8251;53.568;10.018;2023-07-20T02:03:49;19.20;90.10
16287;DHT22;8251;53.568;10.018;2023-07-20T02:06:17;19.20;90.00
16287;DHT22;8251;53.568;10.018;2023-07-20T02:08:44;19.10;90.10
16287;DHT22;8251;53.568;10.018;2023-07-20T02:11:11;19.10;90.20
16287;DHT22;8251;53.568;10.018;2023-07-20T02:13:37;19.10;90.30
16287;DHT22;8251;53.568;10.018;2023-07-20T02:16:05;19.10;90.30
16287;DHT22;8251;53.568;10.018;2023-07-20T02:18:31;19.10;90.30
16287;DHT22;8251;53.568;10.018;2023-07-20T02:20:58;19.10;90.40
16287;DHT22;8251;53.568;10.018;2023-07-20T02:23:26;19.10;90.50
16287;DHT22;8251;53.568;10.018;2023-07-20T02:25:53;19.10;90.60
16287;DHT22;8251;53.568;10.018;2023-07-20T02:28:20;19.10;90.70
16287;DHT22;8251;53.568;10.018;2023-07-20T02:30:47;19.10;90.80
16287;DHT22;8251;53.568;10.018;2023-07-20T02:33:14;19.10;90.80
16287;DHT22;8251;53.568;10.018;2023-07-20T02:35:41;19.00;90.90
16287;DHT22;8251;53.568;10.018;2023-07-20T02:38:08;19.10;90.90
16287;DHT22;8251;53.568;10.018;2023-07-20T02:40:36;19.10;90.90
16287;DHT22;8251;53.568;10.018;2023-07-20T02:43:03;19.00;90.80
16287;DHT22;8251;53.568;10.018;2023-07-20T02:45:29;19.00;90.60
16287;DHT22;8251;53.568;10.018;2023-07-20T02:47:56;19.00;90.70
16287;DHT22;8251;53.568;10.018;2023-07-20T02:50:23;19.00;90.80
16287;DHT22;8251;53.568;10.018;2023-07-20T02:52:50;19.00;90.90
16287;DHT22;8251;53.568;10.018;2023-07-20T02:55:17;19.00;90.90
16287;DHT22;8251;53.568;10.018;2023-07-20T02:57:46;18.90;90.80
16287;DHT22;8251;53.568;10.018;2023-07-20T03:00:14;18.90;90.80
16287;DHT22;8251;53.568;10.018;2023-07-20T03:02:42;18.90;90.80
16287;DHT22;8251;53.568;10.018;2023-07-20T03:05:09;18.90;90.90
16287;DHT22;8251;53.568;10.018;2023-07-20T03:07:36;18.90;90.90
16287;DHT22;8251;53.568;10.018;2023-07-20T03:10:03;18.90;90.80
16287;DHT22;8251;53.568;10.018;2023-07-20T03:12:32;18.90;90.80
16287;DHT22;8251;53.568;10.018;2023-07-20T03:15:01;18.90;90.80
16287;DHT22;8251;53.568;10.018;2023-07-20T03:17:28;18.90;90.80
16287;DHT22;8251;53.568;10.018;2023-07-20T03:19:55;18.80;90.90
16287;DHT22;8251;53.568;10.018;2023-07-20T03:22:22;18.80;90.90
16287;DHT22;8251;53.568;10.018;2023-07-20T03:24:50;18.80;91.00
16287;DHT22;8251;53.568;10.018;2023-07-20T03:27:17;18.80;91.10
16287;DHT22;8251;53.568;10.018;2023-07-20T03:29:44;18.90;91.10
16287;DHT22;8251;53.568;10.018;2023-07-20T03:32:12;18.90;91.40
16287;DHT22;8251;53.568;10.018;2023-07-20T03:34:39;18.90;91.10
16287;DHT22;8251;53.568;10.018;2023-07-20T03:37:07;18.90;91.10
16287;DHT22;8251;53.568;10.018;2023-07-20T03:39:33;18.90;91.00
16287;DHT22;8251;53.568;10.018;2023-07-20T03:42:00;18.90;91.00
16287;DHT22;8251;53.568;10.018;2023-07-20T03:44:27;18.80;91.10
16287;DHT22;8251;53.568;10.018;2023-07-20T03:46:54;18.80;91.10
16287;DHT22;8251;53.568;10.018;2023-07-20T03:49:23;18.90;91.00
16287;DHT22;8251;53.568;10.018;2023-07-20T03:51:49;18.80;91.00
16287;DHT22;8251;53.568;10.018;2023-07-20T03:54:16;18.80;91.10
16287;DHT22;8251;53.568;10.018;2023-07-20T03:56:44;18.80;91.10
16287;DHT22;8251;53.568;10.018;2023-07-20T03:59:11;18.80;91.10
16287;DHT22;8251;53.568;10.018;2023-07-20T04:01:38;18.90;91.20
16287;DHT22;8251;53.568;10.018;2023-07-20T04:04:06;18.90;91.20
16287;DHT22;8251;53.568;10.018;2023-07-20T04:06:35;18.90;91.20
16287;DHT22;8251;53.568;10.018;2023-07-20T04:09:03;18.90;91.20
16287;DHT22;8251;53.568;10.018;2023-07-20T04:11:31;18.90;91.20
16287;DHT22;8251;53.568;10.018;2023-07-20T04:13:58;18.90;91.10
16287;DHT22;8251;53.568;10.018;2023-07-20T04:16:24;18.90;91.10
16287;DHT22;8251;53.568;10.018;2023-07-20T04:18:51;18.90;91.10
16287;DHT22;8251;53.568;10.018;2023-07-20T04:21:18;18.90;91.10
16287;DHT22;8251;53.568;10.018;2023-07-20T04:23:46;18.90;91.10
16287;DHT22;8251;53.568;10.018;2023-07-20T04:26:13;18.90;91.10
16287;DHT22;8251;53.568;10.018;2023-07-20T04:28:40;18.90;91.20
16287;DHT22;8251;53.568;10.018;2023-07-20T04:31:11;18.90;91.10
16287;DHT22;8251;53.568;10.018;2023-07-20T04:33:39;18.90;91.10
16287;DHT22;8251;53.568;10.018;2023-07-20T04:36:06;18.90;91.20
16287;DHT22;8251;53.568;10.018;2023-07-20T04:38:34;18.90;91.20
16287;DHT22;8251;53.568;10.018;2023-07-20T04:41:02;18.90;91.20
16287;DHT22;8251;53.568;10.018;2023-07-20T04:43:29;18.90;91.20
16287;DHT22;8251;53.568;10.018;2023-07-20T04:45:56;18.90;91.20
16287;DHT22;8251;53.568;10.018;2023-07-20T04:48:24;19.00;91.20
16287;DHT22;8251;53.568;10.018;2023-07-20T04:50:51;19.00;91.20
16287;DHT22;8251;53.568;10.018;2023-07-20T04:53:17;19.00;91.10
16287;DHT22;8251;53.568;10.018;2023-07-20T04:55:48;19.00;91.10
16287;DHT22;8251;53.568;10.018;2023-07-20T04:58:18;19.00;91.00
16287;DHT22;8251;53.568;10.018;2023-07-20T05:00:45;19.00;91.00
16287;DHT22;8251;53.568;10.018;2023-07-20T05:03:12;19.00;91.00
16287;DHT22;8251;53.568;10.018;2023-07-20T05:05:39;19.00;90.90
16287;DHT22;8251;53.568;10.018;2023-07-20T05:08:06;19.00;90.90
16287;DHT22;8251;53.568;10.018;2023-07-20T05:10:33;19.10;90.90
16287;DHT22;8251;53.568;10.018;2023-07-20T05:12:59;19.00;90.90
16287;DHT22;8251;53.568;10.018;2023-07-20T05:15:28;19.10;91.00
16287;DHT22;8251;53.568;10.018;2023-07-20T05:17:54;19.10;91.40
16287;DHT22;8251;53.568;10.018;2023-07-20T05:20:21;19.10;91.00
16287;DHT22;8251;53.568;10.018;2023-07-20T05:22:48;19.10;91.00
16287;DHT22;8251;53.568;10.018;2023-07-20T05:25:17;19.10;91.00
16287;DHT22;8251;53.568;10.018;2023-07-20T05:27:45;19.10;91.10
16287;DHT22;8251;53.568;10.018;2023-07-20T05:30:12;19.10;91.20
16287;DHT22;8251;53.568;10.018;2023-07-20T05:32:40;19.10;91.10
16287;DHT22;8251;53.568;10.018;2023-07-20T05:35:08;19.10;91.10
16287;DHT22;8251;53.568;10.018;2023-07-20T05:37:37;19.20;91.10
16287;DHT22;8251;53.568;10.018;2023-07-20T05:40:05;19.20;91.10
16287;DHT22;8251;53.568;10.018;2023-07-20T05:42:33;19.20;91.20
16287;DHT22;8251;53.568;10.018;2023-07-20T05:45:02;19.20;91.10
16287;DHT22;8251;53.568;10.018;2023-07-20T05:47:29;19.30;91.00
16287;DHT22;8251;53.568;10.018;2023-07-20T05:49:57;19.20;91.00
16287;DHT22;8251;53.568;10.018;2023-07-20T05:52:24;19.20;90.80
16287;DHT22;8251;53.568;10.018;2023-07-20T05:54:53;19.30;90.90
16287;DHT22;8251;53.568;10.018;2023-07-20T05:57:21;19.30;90.70
16287;DHT22;8251;53.568;10.018;2023-07-20T05:59:48;19.30;90.80
16287;DHT22;8251;53.568;10.018;2023-07-20T06:02:16;19.30;90.80
16287;DHT22;8251;53.568;10.018;2023-07-20T06:04:43;19.30;90.70
16287;DHT22;8251;53.568;10.018;2023-07-20T06:07:15;19.40;90.60
16287;DHT22;8251;53.568;10.018;2023-07-20T06:09:41;19.40;90.40
16287;DHT22;8251;53.568;10.018;2023-07-20T06:12:09;19.40;90.40
16287;DHT22;8251;53.568;10.018;2023-07-20T06:14:36;19.40;90.40
16287;DHT22;8251;53.568;10.018;2023-07-20T06:17:04;19.40;90.40
16287;DHT22;8251;53.568;10.018;2023-07-20T06:19:31;19.50;90.10
16287;DHT22;8251;53.568;10.018;2023-07-20T06:21:58;19.50;90.00
16287;DHT22;8251;53.568;10.018;2023-07-20T06:24:26;19.50;89.60
16287;DHT22;8251;53.568;10.018;2023-07-20T06:26:53;19.50;89.40
16287;DHT22;8251;53.568;10.018;2023-07-20T06:29:19;19.60;89.30
16287;DHT22;8251;53.568;10.018;2023-07-20T06:31:47;19.60;89.40
16287;DHT22;8251;53.568;10.018;2023-07-20T06:34:14;19.70;89.60
16287;DHT22;8251;53.568;10.018;2023-07-20T06:36:41;19.70;89.60
16287;DHT22;8251;53.568;10.018;2023-07-20T06:39:08;19.70;89.40
16287;DHT22;8251;53.568;10.018;2023-07-20T06:41:36;19.80;89.50
16287;DHT22;8251;53.568;10.018;2023-07-20T06:44:03;20.00;89.30
16287;DHT22;8251;53.568;10.018;2023-07-20T06:46:32;20.20;88.50
16287;DHT22;8251;53.568;10.018;2023-07-20T06:48:59;20.30;87.00
16287;DHT22;8251;53.568;10.018;2023-07-20T06:51:29;20.30;86.60
16287;DHT22;8251;53.568;10.018;2023-07-20T06:54:02;20.50;86.30
16287;DHT22;8251;53.568;10.018;2023-07-20T06:56:34;20.50;85.80
16287;DHT22;8251;53.568;10.018;2023-07-20T06:59:03;20.50;85.00
16287;DHT22;8251;53.568;10.018;2023-07-20T07:01:29;20.40;83.40
16287;DHT22;8251;53.568;10.018;2023-07-20T07:03:56;20.30;82.70
16287;DHT22;8251;53.568;10.018;2023-07-20T07:06:23;20.30;83.00
16287;DHT22;8251;53.568;10.018;2023-07-20T07:08:50;20.30;83.70
16287;DHT22;8251;53.568;10.018;2023-07-20T07:11:17;20.40;83.40
16287;DHT22;8251;53.568;10.018;2023-07-20T07:13:47;20.50;82.60
16287;DHT22;8251;53.568;10.018;2023-07-20T07:16:24;20.50;82.90
16287;DHT22;8251;53.568;10.018;2023-07-20T07:18:55;20.50;82.10
16287;DHT22;8251;53.568;10.018;2023-07-20T07:21:22;20.50;81.10
16287;DHT22;8251;53.568;10.018;2023-07-20T07:23:49;20.60;79.80
16287;DHT22;8251;53.568;10.018;2023-07-20T07:26:18;20.60;78.80
16287;DHT22;8251;53.568;10.018;2023-07-20T07:28:45;20.60;77.80
16287;DHT22;8251;53.568;10.018;2023-07-20T07:31:12;20.50;77.00
16287;DHT22;8251;53.568;10.018;2023-07-20T07:33:40;20.60;77.00
16287;DHT22;8251;53.568;10.018;2023-07-20T07:36:07;20.60;77.70
16287;DHT22;8251;53.568;10.018;2023-07-20T07:38:34;20.70;78.00
16287;DHT22;8251;53.568;10.018;2023-07-20T07:41:03;20.70;77.20
16287;DHT22;8251;53.568;10.018;2023-07-20T07:43:33;20.80;77.30
16287;DHT22;8251;53.568;10.018;2023-07-20T07:46:00;20.70;77.40
16287;DHT22;8251;53.568;10.018;2023-07-20T07:48:27;20.70;77.00
16287;DHT22;8251;53.568;10.018;2023-07-20T07:50:57;20.60;76.10
16287;DHT22;8251;53.568;10.018;2023-07-20T07:53:24;20.60;75.30
16287;DHT22;8251;53.568;10.018;2023-07-20T07:55:52;20.60;75.60
16287;DHT22;8251;53.568;10.018;2023-07-20T07:58:19;20.70;74.90
16287;DHT22;8251;53.568;10.018;2023-07-20T08:00:46;20.80;75.50
16287;DHT22;8251;53.568;10.018;2023-07-20T08:03:13;21.00;74.80
16287;DHT22;8251;53.568;10.018;2023-07-20T08:05:41;21.10;74.20
16287;DHT22;8251;53.568;10.018;2023-07-20T08:08:09;21.10;74.20
16287;DHT22;8251;53.568;10.018;2023-07-20T08:10:36;21.20;73.90
16287;DHT22;8251;53.568;10.018;2023-07-20T08:13:03;21.20;73.60
16287;DHT22;8251;53.568;10.018;2023-07-20T08:15:29;21.20;73.20
16287;DHT22;8251;53.568;10.018;2023-07-20T08:17:56;21.30;73.30
16287;DHT22;8251;53.568;10.018;2023-07-20T08:20:23;21.50;73.00
16287;DHT22;8251;53.568;10.018;2023-07-20T08:22:53;21.90;71.90
16287;DHT22;8251;53.568;10.018;2023-07-20T08:25:22;22.10;70.60
16287;DHT22;8251;53.568;10.018;2023-07-20T08:27:48;22.30;68.90
16287;DHT22;8251;53.568;10.018;2023-07-20T08:30:15;22.40;67.90
16287;DHT22;8251;53.568;10.018;2023-07-20T08:32:42;22.60;67.80
16287;DHT22;8251;53.568;10.018;2023-07-20T08:35:15;22.90;66.80
16287;DHT22;8251;53.568;10.018;2023-07-20T08:37:50;23.20;65.60
16287;DHT22;8251;53.568;10.018;2023-07-20T08:40:22;23.50;64.80
16287;DHT22;8251;53.568;10.018;2023-07-20T08:42:49;24.10;63.40
16287;DHT22;8251;53.568;10.018;2023-07-20T08:45:17;24.80;61.30
16287;DHT22;8251;53.568;10.018;2023-07-20T08:47:45;25.40;59.30
16287;DHT22;8251;53.568;10.018;2023-07-20T08:50:15;25.80;57.40
16287;DHT22;8251;53.568;10.018;2023-07-20T08:52:42;25.70;58.30
16287;DHT22;8251;53.568;10.018;2023-07-20T08:55:10;25.40;61.40
16287;DHT22;8251;53.568;10.018;2023-07-20T08:57:40;24.80;63.70
16287;DHT22;8251;53.568;10.018;2023-07-20T09:00:10;24.40;65.30
16287;DHT22;8251;53.568;10.018;2023-07-20T09:02:39;24.00;67.30
16287;DHT22;8251;53.568;10.018;2023-07-20T09:05:08;24.10;69.10
16287;DHT22;8251;53.568;10.018;2023-07-20T09:07:36;24.60;69.40
16287;DHT22;8251;53.568;10.018;2023-07-20T09:10:03;25.00;68.10
16287;DHT22;8251;53.568;10.018;2023-07-20T09:12:35;25.40;67.60
16287;DHT22;8251;53.568;10.018;2023-07-20T09:15:04;25.70;66.30
16287;DHT22;8251;53.568;10.018;2023-07-20T09:17:32;26.00;64.40
16287;DHT22;8251;53.568;10.018;2023-07-20T09:20:00;26.00;62.60
16287;DHT22;8251;53.568;10.018;2023-07-20T09:22:31;26.00;62.90
16287;DHT22;8251;53.568;10.018;2023-07-20T09:24:58;26.10;62.40
16287;DHT22;8251;53.568;10.018;2023-07-20T09:27:35;26.20;60.20
16287;DHT22;8251;53.568;10.018;2023-07-20T09:30:05;26.10;59.70
16287;DHT22;8251;53.568;10.018;2023-07-20T09:32:38;25.70;58.90
16287;DHT22;8251;53.568;10.018;2023-07-20T09:35:06;25.20;60.70
16287;DHT22;8251;53.568;10.018;2023-07-20T09:37:33;24.70;63.90
16287;DHT22;8251;53.568;10.018;2023-07-20T09:40:00;24.30;65.10
16287;DHT22;8251;53.568;10.018;2023-07-20T09:42:27;23.90;66.60
16287;DHT22;8251;53.568;10.018;2023-07-20T09:44:54;23.60;67.70
16287;DHT22;8251;53.568;10.018;2023-07-20T09:47:24;23.40;68.90
16287;DHT22;8251;53.568;10.018;2023-07-20T09:49:58;23.20;69.40
16287;DHT22;8251;53.568;10.018;2023-07-20T09:52:25;23.20;69.80
16287;DHT22;8251;53.568;10.018;2023-07-20T09:54:52;23.40;70.30
16287;DHT22;8251;53.568;10.018;2023-07-20T09:57:21;23.80;69.90
16287;DHT22;8251;53.568;10.018;2023-07-20T09:59:48;24.00;68.40
16287;DHT22;8251;53.568;10.018;2023-07-20T10:02:20;24.40;67.20
16287;DHT22;8251;53.568;10.018;2023-07-20T10:04:51;24.80;66.70
16287;DHT22;8251;53.568;10.018;2023-07-20T10:07:19;25.30;63.20
16287;DHT22;8251;53.568;10.018;2023-07-20T10:09:51;25.60;63.30
16287;DHT22;8251;53.568;10.018;2023-07-20T10:12:22;25.80;62.20
16287;DHT22;8251;53.568;10.018;2023-07-20T10:14:54;26.10;60.90
16287;DHT22;8251;53.568;10.018;2023-07-20T10:17:26;26.30;60.70
16287;DHT22;8251;53.568;10.018;2023-07-20T10:19:55;26.60;60.30
16287;DHT22;8251;53.568;10.018;2023-07-20T10:22:26;26.80;59.00
16287;DHT22;8251;53.568;10.018;2023-07-20T10:24:53;27.10;60.10
16287;DHT22;8251;53.568;10.018;2023-07-20T10:27:23;27.30;60.40
16287;DHT22;8251;53.568;10.018;2023-07-20T10:29:51;27.30;59.10
16287;DHT22;8251;53.568;10.018;2023-07-20T10:32:19;27.30;56.30
16287;DHT22;8251;53.568;10.018;2023-07-20T10:34:50;27.20;56.80
16287;DHT22;8251;53.568;10.018;2023-07-20T10:37:53;27.00;57.40
16287;DHT22;8251;53.568;10.018;2023-07-20T10:40:30;27.20;58.60
16287;DHT22;8251;53.568;10.018;2023-07-20T10:43:03;27.60;58.70
16287;DHT22;8251;53.568;10.018;2023-07-20T10:45:39;27.80;54.40
16287;DHT22;8251;53.568;10.018;2023-07-20T10:48:14;27.60;52.70
16287;DHT22;8251;53.568;10.018;2023-07-20T10:50:42;27.10;52.30
16287;DHT22;8251;53.568;10.018;2023-07-20T10:53:18;26.60;53.90
16287;DHT22;8251;53.568;10.018;2023-07-20T10:55:45;26.40;55.90
16287;DHT22;8251;53.568;10.018;2023-07-20T10:58:16;26.60;56.60
16287;DHT22;8251;53.568;10.018;2023-07-20T11:00:57;26.60;55.00
16287;DHT22;8251;53.568;10.018;2023-07-20T11:03:31;26.40;55.40
16287;DHT22;8251;53.568;10.018;2023-07-20T11:05:58;26.10;56.30
16287;DHT22;8251;53.568;10.018;2023-07-20T11:08:48;25.80;57.30
16287;DHT22;8251;53.568;10.018;2023-07-20T11:11:25;25.60;58.90
16287;DHT22;8251;53.568;10.018;2023-07-20T11:13:56;25.70;58.30
16287;DHT22;8251;53.568;10.018;2023-07-20T11:16:35;25.60;56.80
16287;DHT22;8251;53.568;10.018;2023-07-20T11:19:03;25.50;58.00
16287;DHT22;8251;53.568;10.018;2023-07-20T11:21:34;25.40;58.00
16287;DHT22;8251;53.568;10.018;2023-07-20T11:24:05;25.40;56.60
16287;DHT22;8251;53.568;10.018;2023-07-20T11:26:40;25.30;55.50
16287;DHT22;8251;53.568;10.018;2023-07-20T11:29:07;25.10;56.00
16287;DHT22;8251;53.568;10.018;2023-07-20T11:31:36;25.00;55.60
16287;DHT22;8251;53.568;10.018;2023-07-20T11:34:04;24.90;56.50
16287;DHT22;8251;53.568;10.018;2023-07-20T11:36:31;24.80;56.70
16287;DHT22;8251;53.568;10.018;2023-07-20T11:38:58;24.80;56.60
16287;DHT22;8251;53.568;10.018;2023-07-20T11:41:27;24.80;56.20
16287;DHT22;8251;53.568;10.018;2023-07-20T11:43:54;24.70;56.30
16287;DHT22;8251;53.568;10.018;2023-07-20T11:46:22;24.50;55.90
16287;DHT22;8251;53.568;10.018;2023-07-20T11:48:49;24.50;56.00
16287;DHT22;8251;53.568;10.018;2023-07-20T11:51:16;24.60;57.10
16287;DHT22;8251;53.568;10.018;2023-07-20T11:53:43;24.60;56.90
16287;DHT22;8251;53.568;10.018;2023-07-20T11:56:11;24.60;57.30
16287;DHT22;8251;53.568;10.018;2023-07-20T11:58:43;24.50;56.30
16287;DHT22;8251;53.568;10.018;2023-07-20T12:01:12;24.50;57.80
16287;DHT22;8251;53.568;10.018;2023-07-20T12:03:39;24.50;58.10
16287;DHT22;8251;53.568;10.018;2023-07-20T12:06:09;24.50;58.20
16287;DHT22;8251;53.568;10.018;2023-07-20T12:08:38;24.60;58.70
16287;DHT22;8251;53.568;10.018;2023-07-20T12:11:06;24.70;59.40
16287;DHT22;8251;53.568;10.018;2023-07-20T12:13:38;24.80;59.60
16287;DHT22;8251;53.568;10.018;2023-07-20T12:16:14;24.80;58.10
16287;DHT22;8251;53.568;10.018;2023-07-20T12:18:41;24.80;57.90
16287;DHT22;8251;53.568;10.018;2023-07-20T12:21:08;24.70;58.00
16287;DHT22;8251;53.568;10.018;2023-07-20T12:23:36;24.70;58.00
16287;DHT22;8251;53.568;10.018;2023-07-20T12:26:06;24.50;58.20
16287;DHT22;8251;53.568;10.018;2023-07-20T12:28:38;24.50;58.00
16287;DHT22;8251;53.568;10.018;2023-07-20T12:31:05;24.40;57.60
16287;DHT22;8251;53.568;10.018;2023-07-20T12:33:33;24.30;56.90
16287;DHT22;8251;53.568;10.018;2023-07-20T12:36:00;24.10;57.90
16287;DHT22;8251;53.568;10.018;2023-07-20T12:38:31;24.00;58.10
16287;DHT22;8251;53.568;10.018;2023-07-20T12:41:01;23.90;59.00
16287;DHT22;8251;53.568;10.018;2023-07-20T12:43:28;23.80;59.10
16287;DHT22;8251;53.568;10.018;2023-07-20T12:45:55;23.70;58.60
16287;DHT22;8251;53.568;10.018;2023-07-20T12:48:22;23.70;58.70
16287;DHT22;8251;53.568;10.018;2023-07-20T12:50:50;23.70;59.90
16287;DHT22;8251;53.568;10.018;2023-07-20T12:53:17;23.80;60.60
16287;DHT22;8251;53.568;10.018;2023-07-20T12:55:44;23.80;60.60
16287;DHT22;8251;53.568;10.018;2023-07-20T12:58:12;23.80;60.10
16287;DHT22;8251;53.568;10.018;2023-07-20T13:00:39;23.80;59.90
16287;DHT22;8251;53.568;10.018;2023-07-20T13:03:06;23.80;60.10
16287;DHT22;8251;53.568;10.018;2023-07-20T13:05:34;23.80;60.70
16287;DHT22;8251;53.568;10.018;2023-07-20T13:08:03;23.80;58.90
16287;DHT22;8251;53.568;10.018;2023-07-20T13:10:31;23.90;58.90
16287;DHT22;8251;53.568;10.018;2023-07-20T13:12:58;24.00;57.20
16287;DHT22;8251;53.568;10.018;2023-07-20T13:15:30;24.00;56.00
16287;DHT22;8251;53.568;10.018;2023-07-20T13:17:58;24.10;56.60
16287;DHT22;8251;53.568;10.018;2023-07-20T13:20:26;24.30;55.70
16287;DHT22;8251;53.568;10.018;2023-07-20T13:22:53;24.50;55.30
16287;DHT22;8251;53.568;10.018;2023-07-20T13:25:26;24.70;55.20
16287;DHT22;8251;53.568;10.018;2023-07-20T13:27:59;24.90;55.60
16287;DHT22;8251;53.568;10.018;2023-07-20T13:30:29;25.10;53.70
16287;DHT22;8251;53.568;10.018;2023-07-20T13:32:56;25.00;52.10
16287;DHT22;8251;53.568;10.018;2023-07-20T13:35:23;25.00;52.40
16287;DHT22;8251;53.568;10.018;2023-07-20T13:37:49;24.90;51.80
16287;DHT22;8251;53.568;10.018;2023-07-20T13:40:16;25.00;52.50
16287;DHT22;8251;53.568;10.018;2023-07-20T13:42:46;25.10;52.70
16287;DHT22;8251;53.568;10.018;2023-07-20T13:45:13;25.20;51.90
16287;DHT22;8251;53.568;10.018;2023-07-20T13:47:39;25.30;53.00
16287;DHT22;8251;53.568;10.018;2023-07-20T13:50:07;25.50;53.70
16287;DHT22;8251;53.568;10.018;2023-07-20T13:52:33;25.60;53.60
16287;DHT22;8251;53.568;10.018;2023-07-20T13:55:01;25.70;53.30
16287;DHT22;8251;53.568;10.018;2023-07-20T13:57:28;25.80;53.20
16287;DHT22;8251;53.568;10.018;2023-07-20T13:59:56;25.80;53.00
16287;DHT22;8251;53.568;10.018;2023-07-20T14:02:25;25.70;52.60
16287;DHT22;8251;53.568;10.018;2023-07-20T14:04:52;25.60;52.70
16287;DHT22;8251;53.568;10.018;2023-07-20T14:07:22;25.50;53.30
16287;DHT22;8251;53.568;10.018;2023-07-20T14:09:49;25.60;52.50
16287;DHT22;8251;53.568;10.018;2023-07-20T14:12:16;25.60;52.80
16287;DHT22;8251;53.568;10.018;2023-07-20T14:14:43;25.60;53.00
16287;DHT22;8251;53.568;10.018;2023-07-20T14:17:12;25.60;50.80
16287;DHT22;8251;53.568;10.018;2023-07-20T14:19:39;25.70;51.50
16287;DHT22;8251;53.568;10.018;2023-07-20T14:22:06;25.80;51.00
16287;DHT22;8251;53.568;10.018;2023-07-20T14:24:32;25.70;50.80
16287;DHT22;8251;53.568;10.018;2023-07-20T14:26:59;25.80;52.30
16287;DHT22;8251;53.568;10.018;2023-07-20T14:29:27;25.90;52.50
16287;DHT22;8251;53.568;10.018;2023-07-20T14:31:57;25.90;52.00
16287;DHT22;8251;53.568;10.018;2023-07-20T14:34:25;26.00;52.00
16287;DHT22;8251;53.568;10.018;2023-07-20T14:36:52;26.10;52.00
16287;DHT22;8251;53.568;10.018;2023-07-20T14:39:19;26.10;50.10
16287;DHT22;8251;53.568;10.018;2023-07-20T14:41:46;26.10;49.60
16287;DHT22;8251;53.568;10.018;2023-07-20T14:44:13;26.00;49.80
16287;DHT22;8251;53.568;10.018;2023-07-20T14:46:40;25.90;49.30
16287;DHT22;8251;53.568;10.018;2023-07-20T14:49:06;25.90;50.40
16287;DHT22;8251;53.568;10.018;2023-07-20T14:51:35;25.90;50.00
16287;DHT22;8251;53.568;10.018;2023-07-20T14:54:08;25.90;49.80
16287;DHT22;8251;53.568;10.018;2023-07-20T14:56:35;25.90;50.70
16287;DHT22;8251;53.568;10.018;2023-07-20T14:59:03;26.00;51.30
16287;DHT22;8251;53.568;10.018;2023-07-20T15:01:31;26.00;51.20
16287;DHT22;8251;53.568;10.018;2023-07-20T15:04:02;26.00;51.30
16287;DHT22;8251;53.568;10.018;2023-07-20T15:06:32;25.90;51.30
16287;DHT22;8251;53.568;10.018;2023-07-20T15:09:00;25.80;50.60
16287;DHT22;8251;53.568;10.018;2023-07-20T15:11:28;25.90;51.30
16287;DHT22;8251;53.568;10.018;2023-07-20T15:13:55;25.80;51.20
16287;DHT22;8251;53.568;10.018;2023-07-20T15:16:21;25.70;51.50
16287;DHT22;8251;53.568;10.018;2023-07-20T15:18:48;25.60;51.70
16287;DHT22;8251;53.568;10.018;2023-07-20T15:21:15;25.40;51.40
16287;DHT22;8251;53.568;10.018;2023-07-20T15:23:42;25.30;52.30
16287;DHT22;8251;53.568;10.018;2023-07-20T15:26:14;25.10;52.70
16287;DHT22;8251;53.568;10.018;2023-07-20T15:28:42;24.90;53.50
16287;DHT22;8251;53.568;10.018;2023-07-20T15:31:08;24.70;53.10
16287;DHT22;8251;53.568;10.018;2023-07-20T15:33:35;24.60;53.40
16287;DHT22;8251;53.568;10.018;2023-07-20T15:36:02;24.50;53.30
16287;DHT22;8251;53.568;10.018;2023-07-20T15:38:30;24.40;53.70